createdAt,value
2023-05-11T00:02:01.458Z,96738.97
2023-05-11T00:04:28.631Z,96739.75
2023-05-11T00:06:56.124Z,96743.00
2023-05-11T00:09:23.126Z,96740.34
2023-05-11T00:11:52.322Z,96732.59
2023-05-11T00:14:19.397Z,96737.66
2023-05-11T00:16:46.409Z,96733.03
2023-05-11T00:19:13.379Z,96731.63
2023-05-11T00:21:40.590Z,96725.06
2023-05-11T00:24:08.173Z,96724.69
2023-05-11T00:26:35.135Z,96722.53
2023-05-11T00:29:02.118Z,96725.88
2023-05-11T00:31:30.569Z,96734.78
2023-05-11T00:33:57.821Z,96721.72
2023-05-11T00:36:25.320Z,96722.84
2023-05-11T00:38:52.986Z,96718.00
2023-05-11T00:41:20.014Z,96718.25
2023-05-11T00:43:47.120Z,96712.19
2023-05-11T00:46:14.127Z,96697.22
2023-05-11T00:48:41.121Z,96702.47
2023-05-11T00:51:08.137Z,96705.75
2023-05-11T00:53:35.184Z,96708.53
2023-05-11T00:56:02.404Z,96701.28
2023-05-11T00:58:29.774Z,96702.56
2023-05-11T01:00:56.771Z,96707.03
2023-05-11T01:03:23.895Z,96704.94
2023-05-11T01:06:21.643Z,96703.75
2023-05-11T01:08:57.167Z,96708.22
2023-05-11T01:11:46.898Z,96702.47
2023-05-11T01:14:16.806Z,96708.41
2023-05-11T01:16:47.306Z,96707.16
2023-05-11T01:19:18.930Z,96702.63
2023-05-11T01:21:45.915Z,96702.63
2023-05-11T01:24:21.366Z,96695.06
2023-05-11T01:27:26.079Z,96699.63
2023-05-11T01:30:20.197Z,96696.44
2023-05-11T01:32:47.359Z,96693.00
2023-05-11T01:35:22.546Z,96696.16
2023-05-11T01:37:51.571Z,96686.06
2023-05-11T01:40:19.166Z,96696.06
2023-05-11T01:42:48.703Z,96696.69
2023-05-11T01:45:15.889Z,96700.88
2023-05-11T01:47:44.025Z,96701.00
2023-05-11T01:50:11.099Z,96703.03
2023-05-11T01:52:38.864Z,96701.50
2023-05-11T01:55:06.411Z,96699.56
2023-05-11T01:57:33.481Z,96700.88
2023-05-11T02:00:00.652Z,96710.06
2023-05-11T02:02:27.864Z,96705.72
2023-05-11T02:04:55.081Z,96705.72
2023-05-11T02:07:22.137Z,96697.63
2023-05-11T02:09:50.170Z,96701.94
2023-05-11T02:12:18.481Z,96710.50
2023-05-11T02:14:46.233Z,96701.50
2023-05-11T02:17:13.199Z,96698.88
2023-05-11T02:19:40.387Z,96706.44
2023-05-11T02:22:07.355Z,96710.56
2023-05-11T02:24:34.326Z,96703.78
2023-05-11T02:27:02.284Z,96709.28
2023-05-11T02:29:29.418Z,96703.13
2023-05-11T02:32:00.682Z,96705.13
2023-05-11T02:34:38.985Z,96704.50
2023-05-11T02:37:07.330Z,96691.66
2023-05-11T02:39:35.951Z,96700.38
2023-05-11T02:42:09.731Z,96691.72
2023-05-11T02:44:37.308Z,96690.31
2023-05-11T02:47:04.819Z,96687.56
2023-05-11T02:49:33.327Z,96688.50
2023-05-11T02:52:01.251Z,96686.13
2023-05-11T02:54:28.736Z,96692.31
2023-05-11T02:56:56.436Z,96694.94
2023-05-11T02:59:24.998Z,96690.91
2023-05-11T03:01:52.664Z,96695.41
2023-05-11T03:04:19.836Z,96691.41
2023-05-11T03:06:47.077Z,96689.66
2023-05-11T03:09:14.150Z,96683.66
2023-05-11T03:11:45.363Z,96681.16
2023-05-11T03:14:12.469Z,96677.03
2023-05-11T03:16:39.954Z,96677.31
2023-05-11T03:19:08.254Z,96683.44
2023-05-11T03:21:36.476Z,96675.41
2023-05-11T03:24:05.737Z,96673.59
2023-05-11T03:26:32.835Z,96669.41
2023-05-11T03:29:00.361Z,96671.16
2023-05-11T03:31:27.642Z,96671.53
2023-05-11T03:33:55.001Z,96674.38
2023-05-11T03:36:22.712Z,96668.72
2023-05-11T03:38:50.298Z,96664.03
2023-05-11T03:41:17.955Z,96667.44
2023-05-11T03:43:51.634Z,96665.97
2023-05-11T03:46:20.917Z,96666.94
2023-05-11T03:48:48.193Z,96668.69
2023-05-11T03:51:19.954Z,96665.94
2023-05-11T03:53:46.986Z,96660.59
2023-05-11T03:56:14.032Z,96664.44
2023-05-11T03:58:41.209Z,96664.03
2023-05-11T04:01:11.225Z,96660.66
2023-05-11T04:03:51.558Z,96653.41
2023-05-11T04:06:19.160Z,96656.25
2023-05-11T04:08:50.628Z,96659.56
2023-05-11T04:11:17.702Z,96653.06
2023-05-11T04:13:44.841Z,96657.59
2023-05-11T04:16:11.908Z,96650.88
2023-05-11T04:18:39.027Z,96660.00
2023-05-11T04:21:06.881Z,96654.03
2023-05-11T04:23:33.841Z,96658.06
2023-05-11T04:26:00.883Z,96653.56
2023-05-11T04:28:28.147Z,96659.25
2023-05-11T04:30:56.026Z,96652.69
2023-05-11T04:33:23.672Z,96658.66
2023-05-11T04:35:51.863Z,96659.34
2023-05-11T04:38:19.576Z,96651.69
2023-05-11T04:40:48.009Z,96649.31
2023-05-11T04:43:16.125Z,96658.34
2023-05-11T04:45:48.395Z,96659.72
2023-05-11T04:48:20.318Z,96658.53
2023-05-11T04:50:47.946Z,96651.75
2023-05-11T04:53:16.822Z,96656.03
2023-05-11T04:55:44.338Z,96658.47
2023-05-11T04:58:12.065Z,96654.66
2023-05-11T05:00:39.127Z,96657.25
2023-05-11T05:03:06.169Z,96662.91
2023-05-11T05:05:33.299Z,96662.13
2023-05-11T05:08:00.845Z,96657.34
2023-05-11T05:10:27.784Z,96656.53
2023-05-11T05:12:54.801Z,96655.44
2023-05-11T05:15:22.016Z,96663.16
2023-05-11T05:17:49.199Z,96653.56
2023-05-11T05:20:17.040Z,96671.63
2023-05-11T05:22:44.326Z,96668.66
2023-05-11T05:25:12.180Z,96666.66
2023-05-11T05:27:39.468Z,96673.88
2023-05-11T05:30:09.849Z,96669.47
2023-05-11T05:32:36.868Z,96668.47
2023-05-11T05:35:04.140Z,96674.63
2023-05-11T05:37:31.195Z,96671.22
2023-05-11T05:39:59.149Z,96672.94
2023-05-11T05:42:26.191Z,96681.84
2023-05-11T05:44:53.322Z,96677.34
2023-05-11T05:47:21.304Z,96679.66
2023-05-11T05:49:48.386Z,96672.31
2023-05-11T05:52:15.498Z,96674.75
2023-05-11T05:54:43.344Z,96681.19
2023-05-11T05:57:10.639Z,96679.97
2023-05-11T05:59:37.642Z,96682.50
2023-05-11T06:02:06.493Z,96687.78
2023-05-11T06:04:33.897Z,96681.72
2023-05-11T06:07:01.074Z,96686.84
2023-05-11T06:09:28.060Z,96684.09
2023-05-11T06:11:55.053Z,96687.56
2023-05-11T06:14:24.242Z,96686.34
2023-05-11T06:16:51.705Z,96685.47
2023-05-11T06:19:18.648Z,96689.31
2023-05-11T06:21:46.240Z,96691.69
2023-05-11T06:24:14.430Z,96697.81
2023-05-11T06:26:43.319Z,96691.78
2023-05-11T06:29:11.106Z,96688.25
2023-05-11T06:31:39.005Z,96695.09
2023-05-11T06:34:09.135Z,96693.34
2023-05-11T06:36:36.923Z,96691.81
2023-05-11T06:39:05.247Z,96689.81
2023-05-11T06:41:32.497Z,96686.53
2023-05-11T06:43:59.982Z,96683.16
2023-05-11T06:46:33.057Z,96688.94
2023-05-11T06:49:00.981Z,96695.75
2023-05-11T06:51:28.045Z,96685.38
2023-05-11T06:53:55.037Z,96687.97
2023-05-11T06:56:22.338Z,96685.34
2023-05-11T06:58:49.355Z,96688.38
2023-05-11T07:01:17.033Z,96690.25
2023-05-11T07:03:44.187Z,96689.28
2023-05-11T07:06:11.213Z,96686.44
2023-05-11T07:08:38.692Z,96689.00
2023-05-11T07:11:05.792Z,96687.81
2023-05-11T07:13:32.912Z,96681.44
2023-05-11T07:15:59.913Z,96682.56
2023-05-11T07:18:27.344Z,96674.97
2023-05-11T07:20:54.395Z,96684.81
2023-05-11T07:23:21.581Z,96683.00
2023-05-11T07:25:48.587Z,96685.56
2023-05-11T07:28:15.562Z,96675.84
2023-05-11T07:30:42.573Z,96689.47
2023-05-11T07:33:10.138Z,96684.03
2023-05-11T07:35:37.157Z,96687.25
2023-05-11T07:38:06.243Z,96685.06
2023-05-11T07:40:33.318Z,96685.19
2023-05-11T07:43:00.354Z,96690.25
2023-05-11T07:45:27.426Z,96684.16
2023-05-11T07:47:54.452Z,96688.84
2023-05-11T07:50:23.914Z,96685.41
2023-05-11T07:52:51.659Z,96691.22
2023-05-11T07:55:20.526Z,96687.91
2023-05-11T07:57:47.754Z,96689.66
2023-05-11T08:00:15.754Z,96680.59
2023-05-11T08:02:42.974Z,96688.22
2023-05-11T08:05:10.256Z,96689.00
2023-05-11T08:07:39.583Z,96686.19
2023-05-11T08:10:08.746Z,96689.31
2023-05-11T08:12:36.952Z,96694.84
2023-05-11T08:15:04.922Z,96685.97
2023-05-11T08:17:32.440Z,96687.09
2023-05-11T08:19:59.494Z,96689.56
2023-05-11T08:22:26.493Z,96691.81
2023-05-11T08:24:53.510Z,96693.16
2023-05-11T08:27:20.578Z,96687.56
2023-05-11T08:29:47.521Z,96684.28
2023-05-11T08:32:14.736Z,96683.69
2023-05-11T08:34:41.818Z,96689.66
2023-05-11T08:37:08.904Z,96690.09
2023-05-11T08:39:46.509Z,96684.66
2023-05-11T08:42:17.316Z,96683.59
2023-05-11T08:44:44.621Z,96696.09
2023-05-11T08:47:22.701Z,96691.47
2023-05-11T08:49:51.254Z,96685.09
2023-05-11T08:52:18.304Z,96693.88
2023-05-11T08:54:48.418Z,96687.38
2023-05-11T08:57:15.677Z,96683.94
2023-05-11T08:59:44.981Z,96687.66
2023-05-11T09:02:16.376Z,96683.22
2023-05-11T09:04:46.041Z,96681.56
2023-05-11T09:07:18.047Z,96681.16
2023-05-11T09:09:46.066Z,96688.47
2023-05-11T09:12:13.241Z,96696.56
2023-05-11T09:14:40.400Z,96686.13
2023-05-11T09:17:07.493Z,96685.63
2023-05-11T09:19:34.978Z,96686.81
2023-05-11T09:22:02.134Z,96690.13
2023-05-11T09:24:29.262Z,96689.94
2023-05-11T09:27:09.314Z,96690.88
2023-05-11T09:29:36.583Z,96694.16
2023-05-11T09:32:04.267Z,96692.75
2023-05-11T09:34:31.543Z,96689.66
2023-05-11T09:36:58.617Z,96687.03
2023-05-11T09:39:42.220Z,96691.03
2023-05-11T09:42:21.653Z,96688.13
2023-05-11T09:44:48.749Z,96685.97
2023-05-11T09:47:19.412Z,96689.53
2023-05-11T09:49:47.161Z,96687.06
2023-05-11T09:52:18.680Z,96689.06
2023-05-11T09:54:46.968Z,96676.81
2023-05-11T09:57:30.179Z,96686.53
2023-05-11T09:59:58.246Z,96679.63
2023-05-11T10:02:26.997Z,96682.22
2023-05-11T10:04:56.190Z,96688.00
2023-05-11T10:07:33.861Z,96683.50
2023-05-11T10:10:02.945Z,96682.03
2023-05-11T10:12:30.607Z,96681.03
2023-05-11T10:15:03.827Z,96684.22
2023-05-11T10:17:31.464Z,96678.66
2023-05-11T10:19:59.114Z,96686.25
2023-05-11T10:22:26.709Z,96673.69
2023-05-11T10:24:54.155Z,96677.75
2023-05-11T10:27:21.238Z,96681.44
2023-05-11T10:29:48.698Z,96669.59
2023-05-11T10:32:17.057Z,96672.56
2023-05-11T10:34:44.871Z,96671.59
2023-05-11T10:37:12.222Z,96671.63
2023-05-11T10:39:42.937Z,96681.41
2023-05-11T10:42:33.717Z,96674.97
2023-05-11T10:45:07.884Z,96673.56
2023-05-11T10:47:41.756Z,96674.00
2023-05-11T10:50:27.136Z,96675.25
2023-05-11T10:53:13.976Z,96676.75
2023-05-11T10:56:12.431Z,96666.81
2023-05-11T10:58:58.143Z,96668.69
2023-05-11T11:01:40.210Z,96676.31
2023-05-11T11:04:11.703Z,96676.09
2023-05-11T11:06:42.664Z,96672.97
2023-05-11T11:09:16.370Z,96682.28
2023-05-11T11:11:48.144Z,96671.78
2023-05-11T11:14:16.712Z,96678.13
2023-05-11T11:17:14.746Z,96671.19
2023-05-11T11:19:42.793Z,96673.31
2023-05-11T11:22:34.675Z,96671.56
2023-05-11T11:25:11.776Z,96676.28
2023-05-11T11:27:41.814Z,96670.31
2023-05-11T11:30:29.026Z,96672.69
2023-05-11T11:33:08.144Z,96673.41
2023-05-11T11:35:45.086Z,96668.97
2023-05-11T11:38:19.029Z,96670.31
2023-05-11T11:40:52.801Z,96675.38
2023-05-11T11:43:24.934Z,96670.59
2023-05-11T11:45:55.504Z,96673.97
2023-05-11T11:48:31.479Z,96675.06
2023-05-11T11:51:08.746Z,96672.94
2023-05-11T11:53:42.140Z,96672.28
2023-05-11T11:56:28.977Z,96671.19
2023-05-11T11:58:55.996Z,96672.69
2023-05-11T12:01:25.848Z,96666.53
2023-05-11T12:04:36.881Z,96668.59
2023-05-11T12:07:03.985Z,96672.97
2023-05-11T12:09:31.092Z,96667.84
2023-05-11T12:11:58.044Z,96669.22
2023-05-11T12:14:25.084Z,96677.66
2023-05-11T12:17:05.906Z,96666.84
2023-05-11T12:19:32.944Z,96664.28
2023-05-11T12:22:00.117Z,96670.78
2023-05-11T12:24:27.329Z,96672.25
2023-05-11T12:26:57.596Z,96677.44
2023-05-11T12:29:24.881Z,96671.94
2023-05-11T12:31:51.957Z,96669.78
2023-05-11T12:34:21.457Z,96673.72
2023-05-11T12:36:50.070Z,96675.22
2023-05-11T12:39:24.139Z,96673.66
2023-05-11T12:41:52.252Z,96667.88
2023-05-11T12:44:19.530Z,96670.66
2023-05-11T12:46:47.235Z,96664.59
2023-05-11T12:51:52.953Z,96657.25
2023-05-11T12:54:51.702Z,96658.94
2023-05-11T12:57:31.808Z,96651.56
2023-05-11T13:00:10.134Z,96657.75
2023-05-11T13:02:51.089Z,96650.91
2023-05-11T13:05:22.063Z,96649.13
2023-05-11T13:07:57.734Z,96656.69
2023-05-11T13:10:25.584Z,96652.50
2023-05-11T13:12:52.876Z,96653.00
2023-05-11T13:15:21.936Z,96654.59
2023-05-11T13:17:50.362Z,96646.47
2023-05-11T13:20:24.641Z,96644.16
2023-05-11T13:22:51.677Z,96645.13
2023-05-11T13:25:20.186Z,96646.72
2023-05-11T13:27:47.476Z,96643.72
2023-05-11T13:30:14.665Z,96643.50
2023-05-11T13:32:41.722Z,96646.28
2023-05-11T13:35:09.161Z,96639.41
2023-05-11T13:37:36.179Z,96635.13
2023-05-11T13:40:06.718Z,96632.03
2023-05-11T13:42:33.933Z,96634.22
2023-05-11T13:45:01.084Z,96634.03
2023-05-11T13:47:28.061Z,96628.63
2023-05-11T13:49:55.117Z,96631.06
2023-05-11T13:52:22.500Z,96634.53
2023-05-11T13:54:49.628Z,96636.00
2023-05-11T13:57:16.865Z,96635.16
2023-05-11T13:59:43.908Z,96628.66
2023-05-11T14:02:11.716Z,96621.13
2023-05-11T14:04:40.445Z,96624.88
2023-05-11T14:07:07.574Z,96623.25
2023-05-11T14:09:34.621Z,96624.09
2023-05-11T14:12:01.580Z,96623.91
2023-05-11T14:14:28.604Z,96620.88
2023-05-11T14:16:56.350Z,96622.44
2023-05-11T14:19:23.345Z,96615.66
2023-05-11T14:21:50.628Z,96614.50
2023-05-11T14:24:17.640Z,96615.41
2023-05-11T14:26:44.680Z,96617.09
2023-05-11T14:29:11.661Z,96620.00
2023-05-11T14:31:39.212Z,96616.09
2023-05-11T14:34:06.498Z,96618.34
2023-05-11T14:36:33.523Z,96625.13
2023-05-11T14:39:00.768Z,96622.13
2023-05-11T14:41:27.753Z,96615.16
2023-05-11T14:43:54.786Z,96613.69
2023-05-11T14:46:22.749Z,96611.94
2023-05-11T14:48:52.132Z,96611.56
2023-05-11T14:51:19.078Z,96612.97
2023-05-11T14:53:46.061Z,96618.63
2023-05-11T14:56:13.050Z,96623.34
2023-05-11T14:58:40.086Z,96621.19
2023-05-11T15:01:07.273Z,96613.59
2023-05-11T15:03:37.206Z,96616.75
2023-05-11T15:06:04.452Z,96616.06
2023-05-11T15:08:32.060Z,96617.34
2023-05-11T15:10:59.130Z,96619.81
2023-05-11T15:13:26.169Z,96632.13
2023-05-11T15:15:53.334Z,96627.31
2023-05-11T15:18:20.606Z,96632.69
2023-05-11T15:20:47.608Z,96622.75
2023-05-11T15:23:17.886Z,96629.09
2023-05-11T15:25:45.437Z,96625.06
2023-05-11T15:28:12.711Z,96629.63
2023-05-11T15:30:41.765Z,96631.16
2023-05-11T15:33:09.977Z,96636.28
2023-05-11T15:35:37.487Z,96637.31
2023-05-11T15:38:05.554Z,96638.06
2023-05-11T15:40:32.671Z,96635.69
2023-05-11T15:43:00.285Z,96640.88
2023-05-11T15:45:27.381Z,96640.28
2023-05-11T15:47:54.515Z,96648.25
2023-05-11T15:50:22.337Z,96641.78
2023-05-11T15:52:49.617Z,96647.47
2023-05-11T15:55:16.675Z,96647.66
2023-05-11T15:57:43.671Z,96640.63
2023-05-11T16:00:11.538Z,96650.63
2023-05-11T16:02:38.802Z,96654.06
2023-05-11T16:05:06.347Z,96649.31
2023-05-11T16:07:34.022Z,96656.50
2023-05-11T16:10:01.458Z,96651.16
2023-05-11T16:12:28.702Z,96657.13
2023-05-11T16:14:56.002Z,96659.84
2023-05-11T16:17:23.020Z,96655.34
2023-05-11T16:19:50.037Z,96664.97
2023-05-11T16:22:17.017Z,96663.38
2023-05-11T16:24:44.020Z,96669.53
2023-05-11T16:27:11.070Z,96660.16
2023-05-11T16:29:38.108Z,96658.72
2023-05-11T16:32:05.449Z,96665.78
2023-05-11T16:34:32.727Z,96654.25
2023-05-11T16:36:59.738Z,96665.59
2023-05-11T16:39:26.942Z,96656.22
2023-05-11T16:41:53.952Z,96654.84
2023-05-11T16:44:21.231Z,96658.28
2023-05-11T16:46:49.139Z,96652.47
2023-05-11T16:49:16.733Z,96644.72
2023-05-11T16:51:43.855Z,96650.03
2023-05-11T16:54:11.313Z,96647.97
2023-05-11T16:56:38.365Z,96651.75
2023-05-11T16:59:05.393Z,96653.22
2023-05-11T17:01:34.176Z,96645.28
2023-05-11T17:04:01.404Z,96649.75
2023-05-11T17:06:28.782Z,96649.28
2023-05-11T17:08:55.819Z,96646.19
2023-05-11T17:11:23.832Z,96648.13
2023-05-11T17:13:51.443Z,96651.75
2023-05-11T17:16:18.561Z,96646.78
2023-05-11T17:18:46.492Z,96645.31
2023-05-11T17:21:13.623Z,96635.91
2023-05-11T17:23:40.692Z,96645.91
2023-05-11T17:26:11.475Z,96651.06
2023-05-11T17:28:39.191Z,96645.50
2023-05-11T17:31:13.169Z,96647.00
2023-05-11T17:33:40.858Z,96654.53
2023-05-11T17:36:08.484Z,96653.09
2023-05-11T17:38:35.533Z,96656.16
2023-05-11T17:41:05.972Z,96647.56
2023-05-11T17:43:33.770Z,96650.25
2023-05-11T17:46:03.981Z,96654.75
2023-05-11T17:48:32.198Z,96661.78
2023-05-11T17:50:59.501Z,96652.56
2023-05-11T17:53:27.441Z,96661.19
2023-05-11T17:55:54.541Z,96660.50
2023-05-11T17:58:21.538Z,96657.97
2023-05-11T18:00:49.534Z,96655.91
2023-05-11T18:03:17.068Z,96662.06
2023-05-11T18:08:14.430Z,96655.41
2023-05-11T18:10:41.657Z,96666.75
2023-05-11T18:13:09.000Z,96666.63
2023-05-11T18:15:36.051Z,96659.66
2023-05-11T18:18:03.522Z,96666.94
2023-05-11T18:20:31.021Z,96665.19
2023-05-11T18:22:58.227Z,96667.13
2023-05-11T18:25:28.073Z,96668.09
2023-05-11T18:27:55.227Z,96659.84
2023-05-11T18:30:22.442Z,96665.78
2023-05-11T18:32:49.555Z,96664.47
2023-05-11T18:35:17.092Z,96660.91
2023-05-11T18:37:44.151Z,96666.38
2023-05-11T18:40:11.701Z,96667.44
2023-05-11T18:42:38.779Z,96676.53
2023-05-11T18:45:07.544Z,96675.22
2023-05-11T18:47:36.020Z,96671.63
2023-05-11T18:50:04.200Z,96671.75
2023-05-11T18:52:31.741Z,96674.44
2023-05-11T18:54:58.837Z,96670.78
2023-05-11T18:57:25.950Z,96674.59
2023-05-11T18:59:53.161Z,96676.84
2023-05-11T19:02:20.371Z,96671.16
2023-05-11T19:04:47.508Z,96681.09
2023-05-11T19:07:14.561Z,96677.19
2023-05-11T19:09:41.669Z,96675.72
2023-05-11T19:12:09.000Z,96676.38
2023-05-11T19:14:37.655Z,96687.13
2023-05-11T19:17:05.365Z,96679.66
2023-05-11T19:19:33.233Z,96685.91
2023-05-11T19:22:00.347Z,96685.53
2023-05-11T19:24:28.508Z,96692.03
2023-05-11T19:27:06.544Z,96695.41
2023-05-11T19:29:35.650Z,96693.44
2023-05-11T19:32:03.290Z,96687.78
2023-05-11T19:34:30.458Z,96693.75
2023-05-11T19:36:57.477Z,96695.53
2023-05-11T19:39:24.670Z,96693.03
2023-05-11T19:41:52.163Z,96694.81
2023-05-11T19:44:19.283Z,96687.56
2023-05-11T19:46:47.295Z,96697.03
2023-05-11T19:49:15.512Z,96690.88
2023-05-11T19:51:43.101Z,96688.97
2023-05-11T19:54:11.025Z,96684.91
2023-05-11T19:56:38.251Z,96691.94
2023-05-11T19:59:05.397Z,96687.75
2023-05-11T20:01:33.057Z,96695.41
2023-05-11T20:04:00.255Z,96692.63
2023-05-11T20:06:27.388Z,96690.34
2023-05-11T20:08:54.589Z,96694.00
2023-05-11T20:11:22.255Z,96688.63
2023-05-11T20:13:49.541Z,96685.22
2023-05-11T20:16:16.697Z,96684.25
2023-05-11T20:18:43.980Z,96690.81
2023-05-11T20:21:11.116Z,96696.09
2023-05-11T20:23:40.322Z,96688.50
2023-05-11T20:26:07.476Z,96690.72
2023-05-11T20:28:34.501Z,96688.63
2023-05-11T20:31:01.709Z,96683.78
2023-05-11T20:35:59.085Z,96678.88
2023-05-11T20:38:26.065Z,96683.38
2023-05-11T20:40:59.432Z,96682.66
2023-05-11T20:43:26.410Z,96683.28
2023-05-11T20:45:54.047Z,96677.72
2023-05-11T20:48:32.060Z,96672.81
2023-05-11T20:51:03.240Z,96679.38
2023-05-11T20:53:31.146Z,96671.94
2023-05-11T20:55:58.146Z,96672.94
2023-05-11T20:58:26.575Z,96674.94
2023-05-11T21:00:53.615Z,96670.84
2023-05-11T21:03:20.967Z,96671.19
2023-05-11T21:05:47.999Z,96670.28
2023-05-11T21:08:15.410Z,96675.16
2023-05-11T21:10:42.444Z,96669.50
2023-05-11T21:13:09.450Z,96664.44
2023-05-11T21:15:36.404Z,96666.28
2023-05-11T21:18:03.526Z,96666.72
2023-05-11T21:20:30.624Z,96660.00
2023-05-11T21:22:58.194Z,96662.53
2023-05-11T21:25:25.307Z,96662.44
2023-05-11T21:27:52.284Z,96662.94
2023-05-11T21:30:19.400Z,96661.84
2023-05-11T21:32:46.954Z,96671.91
2023-05-11T21:35:15.091Z,96663.94
2023-05-11T21:37:43.423Z,96657.28
2023-05-11T21:40:11.881Z,96663.53
2023-05-11T21:42:38.865Z,96657.38
2023-05-11T21:45:06.714Z,96661.66
2023-05-11T21:47:34.061Z,96662.25
2023-05-11T21:50:01.243Z,96654.88
2023-05-11T21:52:28.286Z,96663.78
2023-05-11T21:54:55.234Z,96665.19
2023-05-11T21:57:22.419Z,96660.66
2023-05-11T21:59:51.149Z,96661.75
2023-05-11T22:02:18.359Z,96660.66
2023-05-11T22:04:46.403Z,96656.16
2023-05-11T22:07:13.555Z,96663.44
2023-05-11T22:09:40.597Z,96662.63
2023-05-11T22:12:08.145Z,96670.72
2023-05-11T22:14:35.338Z,96665.94
2023-05-11T22:17:02.367Z,96672.09
2023-05-11T22:19:30.034Z,96665.28
2023-05-11T22:21:57.140Z,96664.03
2023-05-11T22:24:27.396Z,96670.13
2023-05-11T22:26:54.941Z,96662.44
2023-05-11T22:29:21.930Z,96662.88
2023-05-11T22:31:52.047Z,96670.53
2023-05-11T22:34:22.246Z,96670.00
2023-05-11T22:36:49.290Z,96670.38
2023-05-11T22:39:16.387Z,96677.88
2023-05-11T22:41:43.375Z,96678.44
2023-05-11T22:44:10.756Z,96677.19
2023-05-11T22:46:37.840Z,96678.44
2023-05-11T22:49:04.956Z,96676.72
2023-05-11T22:51:31.980Z,96677.72
2023-05-11T22:53:58.992Z,96679.50
2023-05-11T22:56:26.081Z,96676.16
2023-05-11T22:58:54.987Z,96679.47
2023-05-11T23:01:22.029Z,96669.81
2023-05-11T23:03:49.152Z,96677.31
2023-05-11T23:06:16.454Z,96677.97
2023-05-11T23:08:43.516Z,96671.56
2023-05-11T23:11:10.505Z,96675.41
2023-05-11T23:13:38.246Z,96669.91
2023-05-11T23:16:05.427Z,96675.50
2023-05-11T23:18:32.967Z,96671.59
2023-05-11T23:21:00.321Z,96670.31
2023-05-11T23:23:27.329Z,96666.97
2023-05-11T23:25:54.372Z,96662.75
2023-05-11T23:28:21.355Z,96665.06
2023-05-11T23:30:48.388Z,96669.81
2023-05-11T23:33:15.348Z,96670.00
2023-05-11T23:35:42.363Z,96666.53
2023-05-11T23:38:09.430Z,96660.16
2023-05-11T23:40:36.463Z,96663.91
2023-05-11T23:43:03.500Z,96662.06
2023-05-11T23:45:30.889Z,96657.66
2023-05-11T23:47:58.113Z,96661.31
2023-05-11T23:50:25.140Z,96657.88
2023-05-11T23:52:52.096Z,96661.63
2023-05-11T23:55:19.285Z,96665.59
2023-05-11T23:57:46.269Z,96645.34
